sensor_id;sensor_type;location;lat;lon;timestamp;temperature;humidity
29939;DHT22;16799;50.844;5.304;2022-07-26T00:01:58;18.00;99.90
29939;DHT22;16799;50.844;5.304;2022-07-26T00:04:24;17.80;99.90
29939;DHT22;16799;50.844;5.304;2022-07-26T00:06:50;17.70;99.90
29939;DHT22;16799;50.844;5.304;2022-07-26T00:09:16;17.70;99.90
29939;DHT22;16799;50.844;5.304;2022-07-26T00:11:41;17.70;99.90
29939;DHT22;16799;50.844;5.304;2022-07-26T00:14:08;17.60;99.90
29939;DHT22;16799;50.844;5.304;2022-07-26T00:16:35;17.70;99.90
29939;DHT22;16799;50.844;5.304;2022-07-26T00:19:01;17.70;99.90
29939;DHT22;16799;50.844;5.304;2022-07-26T00:21:26;17.60;99.90
29939;DHT22;16799;50.844;5.304;2022-07-26T00:23:52;17.40;99.90
29939;DHT22;16799;50.844;5.304;2022-07-26T00:26:17;17.40;99.90
29939;DHT22;16799;50.844;5.304;2022-07-26T00:28:43;17.40;99.90
29939;DHT22;16799;50.844;5.304;2022-07-26T00:31:09;17.50;99.90
29939;DHT22;16799;50.844;5.304;2022-07-26T00:33:37;17.40;99.90
29939;DHT22;16799;50.844;5.304;2022-07-26T00:36:03;17.30;99.90
29939;DHT22;16799;50.844;5.304;2022-07-26T00:38:29;17.20;99.90
29939;DHT22;16799;50.844;5.304;2022-07-26T00:40:55;17.20;99.90
29939;DHT22;16799;50.844;5.304;2022-07-26T00:43:20;17.20;99.90
29939;DHT22;16799;50.844;5.304;2022-07-26T00:45:46;17.20;99.90
29939;DHT22;16799;50.844;5.304;2022-07-26T00:48:12;17.10;99.90
29939;DHT22;16799;50.844;5.304;2022-07-26T00:50:38;17.10;99.90
29939;DHT22;16799;50.844;5.304;2022-07-26T00:53:03;17.00;99.90
29939;DHT22;16799;50.844;5.304;2022-07-26T00:55:30;16.90;99.90
29939;DHT22;16799;50.844;5.304;2022-07-26T00:57:55;16.90;99.90
29939;DHT22;16799;50.844;5.304;2022-07-26T01:00:23;16.90;99.90
29939;DHT22;16799;50.844;5.304;2022-07-26T01:02:52;16.90;99.90
29939;DHT22;16799;50.844;5.304;2022-07-26T01:05:18;16.90;99.90
29939;DHT22;16799;50.844;5.304;2022-07-26T01:07:44;16.90;99.90
29939;DHT22;16799;50.844;5.304;2022-07-26T01:10:11;16.80;99.90
29939;DHT22;16799;50.844;5.304;2022-07-26T01:12:41;16.80;99.90
29939;DHT22;16799;50.844;5.304;2022-07-26T01:15:08;16.80;99.90
29939;DHT22;16799;50.844;5.304;2022-07-26T01:17:34;16.80;99.90
29939;DHT22;16799;50.844;5.304;2022-07-26T01:20:00;16.70;99.90
29939;DHT22;16799;50.844;5.304;2022-07-26T01:22:25;16.70;99.90
29939;DHT22;16799;50.844;5.304;2022-07-26T01:24:51;16.70;99.90
29939;DHT22;16799;50.844;5.304;2022-07-26T01:27:17;16.70;99.90
29939;DHT22;16799;50.844;5.304;2022-07-26T01:29:43;16.70;99.90
29939;DHT22;16799;50.844;5.304;2022-07-26T01:32:08;16.80;99.90
29939;DHT22;16799;50.844;5.304;2022-07-26T01:34:34;16.70;99.90
29939;DHT22;16799;50.844;5.304;2022-07-26T01:37:00;16.60;99.90
29939;DHT22;16799;50.844;5.304;2022-07-26T01:39:26;16.60;99.90
29939;DHT22;16799;50.844;5.304;2022-07-26T01:41:52;16.60;99.90
29939;DHT22;16799;50.844;5.304;2022-07-26T01:44:18;16.60;99.90
29939;DHT22;16799;50.844;5.304;2022-07-26T01:46:44;16.50;99.90
29939;DHT22;16799;50.844;5.304;2022-07-26T01:49:10;16.60;99.90
29939;DHT22;16799;50.844;5.304;2022-07-26T01:51:35;16.60;99.90
29939;DHT22;16799;50.844;5.304;2022-07-26T01:54:01;16.50;99.90
29939;DHT22;16799;50.844;5.304;2022-07-26T01:56:27;16.50;99.90
29939;DHT22;16799;50.844;5.304;2022-07-26T01:58:53;16.50;99.90
29939;DHT22;16799;50.844;5.304;2022-07-26T02:01:19;16.50;99.90
29939;DHT22;16799;50.844;5.304;2022-07-26T02:03:44;16.50;99.90
29939;DHT22;16799;50.844;5.304;2022-07-26T02:06:10;16.60;99.90
29939;DHT22;16799;50.844;5.304;2022-07-26T02:08:36;16.70;99.90
29939;DHT22;16799;50.844;5.304;2022-07-26T02:11:02;16.60;99.90
29939;DHT22;16799;50.844;5.304;2022-07-26T02:15:57;16.60;99.90
29939;DHT22;16799;50.844;5.304;2022-07-26T02:18:27;16.70;99.90
29939;DHT22;16799;50.844;5.304;2022-07-26T02:20:53;16.70;99.90
29939;DHT22;16799;50.844;5.304;2022-07-26T02:23:19;16.80;99.90
29939;DHT22;16799;50.844;5.304;2022-07-26T02:25:45;16.70;99.90
29939;DHT22;16799;50.844;5.304;2022-07-26T02:28:12;16.60;99.90
29939;DHT22;16799;50.844;5.304;2022-07-26T02:30:38;16.60;99.90
29939;DHT22;16799;50.844;5.304;2022-07-26T02:33:04;16.70;99.90
29939;DHT22;16799;50.844;5.304;2022-07-26T02:35:30;16.70;99.90
29939;DHT22;16799;50.844;5.304;2022-07-26T02:38:08;16.80;99.90
29939;DHT22;16799;50.844;5.304;2022-07-26T02:40:35;16.90;99.90
29939;DHT22;16799;50.844;5.304;2022-07-26T02:43:00;16.80;99.90
29939;DHT22;16799;50.844;5.304;2022-07-26T02:45:26;16.90;99.90
29939;DHT22;16799;50.844;5.304;2022-07-26T02:47:54;17.00;99.90
29939;DHT22;16799;50.844;5.304;2022-07-26T02:50:23;16.90;99.90
29939;DHT22;16799;50.844;5.304;2022-07-26T02:52:50;16.80;99.90
29939;DHT22;16799;50.844;5.304;2022-07-26T02:55:18;16.90;99.90
29939;DHT22;16799;50.844;5.304;2022-07-26T02:57:44;16.90;99.90
29939;DHT22;16799;50.844;5.304;2022-07-26T03:00:11;16.80;99.90
29939;DHT22;16799;50.844;5.304;2022-07-26T03:02:38;16.90;99.90
29939;DHT22;16799;50.844;5.304;2022-07-26T03:05:04;16.90;99.90
29939;DHT22;16799;50.844;5.304;2022-07-26T03:07:31;17.00;99.90
29939;DHT22;16799;50.844;5.304;2022-07-26T03:09:56;16.90;99.90
29939;DHT22;16799;50.844;5.304;2022-07-26T03:12:23;16.90;99.90
29939;DHT22;16799;50.844;5.304;2022-07-26T03:14:49;16.90;99.90
29939;DHT22;16799;50.844;5.304;2022-07-26T03:17:15;17.00;99.90
29939;DHT22;16799;50.844;5.304;2022-07-26T03:19:41;17.00;99.90
29939;DHT22;16799;50.844;5.304;2022-07-26T03:22:06;17.10;99.90
29939;DHT22;16799;50.844;5.304;2022-07-26T03:24:32;17.10;99.90
29939;DHT22;16799;50.844;5.304;2022-07-26T03:26:58;17.10;99.90
29939;DHT22;16799;50.844;5.304;2022-07-26T03:29:24;17.00;99.90
29939;DHT22;16799;50.844;5.304;2022-07-26T03:31:50;17.00;99.90
29939;DHT22;16799;50.844;5.304;2022-07-26T03:34:16;17.00;99.90
29939;DHT22;16799;50.844;5.304;2022-07-26T03:36:42;17.00;99.90
29939;DHT22;16799;50.844;5.304;2022-07-26T03:39:11;17.00;99.90
29939;DHT22;16799;50.844;5.304;2022-07-26T03:41:36;17.00;99.90
29939;DHT22;16799;50.844;5.304;2022-07-26T03:44:02;17.00;99.90
29939;DHT22;16799;50.844;5.304;2022-07-26T03:46:28;17.00;99.90
29939;DHT22;16799;50.844;5.304;2022-07-26T03:48:55;16.90;99.90
29939;DHT22;16799;50.844;5.304;2022-07-26T03:51:20;16.90;99.90
29939;DHT22;16799;50.844;5.304;2022-07-26T03:53:46;16.90;99.90
29939;DHT22;16799;50.844;5.304;2022-07-26T03:56:12;17.00;99.90
29939;DHT22;16799;50.844;5.304;2022-07-26T03:59:07;17.00;99.90
29939;DHT22;16799;50.844;5.304;2022-07-26T04:01:34;17.00;99.90
29939;DHT22;16799;50.844;5.304;2022-07-26T04:04:01;17.00;99.90
29939;DHT22;16799;50.844;5.304;2022-07-26T04:06:27;17.00;99.90
29939;DHT22;16799;50.844;5.304;2022-07-26T04:08:54;17.00;99.90
29939;DHT22;16799;50.844;5.304;2022-07-26T04:11:20;17.00;99.90
29939;DHT22;16799;50.844;5.304;2022-07-26T04:13:45;17.10;99.90
29939;DHT22;16799;50.844;5.304;2022-07-26T04:16:11;17.10;99.90
29939;DHT22;16799;50.844;5.304;2022-07-26T04:18:37;17.10;99.90
29939;DHT22;16799;50.844;5.304;2022-07-26T04:21:03;17.00;99.90
29939;DHT22;16799;50.844;5.304;2022-07-26T04:23:28;17.10;99.90
29939;DHT22;16799;50.844;5.304;2022-07-26T04:25:54;17.10;99.90
29939;DHT22;16799;50.844;5.304;2022-07-26T04:28:20;17.00;99.90
29939;DHT22;16799;50.844;5.304;2022-07-26T04:30:45;17.00;99.90
29939;DHT22;16799;50.844;5.304;2022-07-26T04:33:11;17.10;99.90
29939;DHT22;16799;50.844;5.304;2022-07-26T04:35:37;17.10;99.90
29939;DHT22;16799;50.844;5.304;2022-07-26T04:38:03;17.10;99.90
29939;DHT22;16799;50.844;5.304;2022-07-26T04:40:29;17.20;99.90
29939;DHT22;16799;50.844;5.304;2022-07-26T04:42:59;17.30;99.90
29939;DHT22;16799;50.844;5.304;2022-07-26T04:45:25;17.20;99.90
29939;DHT22;16799;50.844;5.304;2022-07-26T04:47:51;17.20;99.90
29939;DHT22;16799;50.844;5.304;2022-07-26T04:50:19;17.10;99.90
29939;DHT22;16799;50.844;5.304;2022-07-26T04:52:44;17.10;99.90
29939;DHT22;16799;50.844;5.304;2022-07-26T04:55:10;17.10;99.90
29939;DHT22;16799;50.844;5.304;2022-07-26T04:57:36;17.10;99.90
29939;DHT22;16799;50.844;5.304;2022-07-26T05:00:04;17.20;99.90
29939;DHT22;16799;50.844;5.304;2022-07-26T05:02:31;17.20;99.90
29939;DHT22;16799;50.844;5.304;2022-07-26T05:04:56;17.30;99.90
29939;DHT22;16799;50.844;5.304;2022-07-26T05:07:22;17.30;99.90
29939;DHT22;16799;50.844;5.304;2022-07-26T05:09:47;17.20;99.90
29939;DHT22;16799;50.844;5.304;2022-07-26T05:12:13;17.30;99.90
29939;DHT22;16799;50.844;5.304;2022-07-26T05:14:39;17.40;99.90
29939;DHT22;16799;50.844;5.304;2022-07-26T05:17:05;17.40;99.90
29939;DHT22;16799;50.844;5.304;2022-07-26T05:19:30;17.40;99.90
29939;DHT22;16799;50.844;5.304;2022-07-26T05:21:56;17.40;99.90
29939;DHT22;16799;50.844;5.304;2022-07-26T05:24:22;17.40;99.90
29939;DHT22;16799;50.844;5.304;2022-07-26T05:26:47;17.40;99.90
29939;DHT22;16799;50.844;5.304;2022-07-26T05:29:13;17.50;99.90
29939;DHT22;16799;50.844;5.304;2022-07-26T05:31:39;17.50;99.90
29939;DHT22;16799;50.844;5.304;2022-07-26T05:34:04;17.60;99.90
29939;DHT22;16799;50.844;5.304;2022-07-26T05:36:30;17.70;99.90
29939;DHT22;16799;50.844;5.304;2022-07-26T05:38:56;17.60;99.90
29939;DHT22;16799;50.844;5.304;2022-07-26T05:41:21;17.60;99.90
29939;DHT22;16799;50.844;5.304;2022-07-26T05:43:47;17.60;99.90
29939;DHT22;16799;50.844;5.304;2022-07-26T05:46:13;17.70;99.90
29939;DHT22;16799;50.844;5.304;2022-07-26T05:48:40;17.70;99.90
29939;DHT22;16799;50.844;5.304;2022-07-26T05:51:07;17.70;99.90
29939;DHT22;16799;50.844;5.304;2022-07-26T05:53:33;17.70;99.90
29939;DHT22;16799;50.844;5.304;2022-07-26T05:55:58;17.90;99.90
29939;DHT22;16799;50.844;5.304;2022-07-26T05:58:24;18.00;99.90
29939;DHT22;16799;50.844;5.304;2022-07-26T06:00:50;18.10;99.90
29939;DHT22;16799;50.844;5.304;2022-07-26T06:03:15;18.10;99.90
29939;DHT22;16799;50.844;5.304;2022-07-26T06:05:54;18.10;99.90
29939;DHT22;16799;50.844;5.304;2022-07-26T06:08:22;18.20;99.90
29939;DHT22;16799;50.844;5.304;2022-07-26T06:10:49;18.20;99.90
29939;DHT22;16799;50.844;5.304;2022-07-26T06:13:15;18.30;99.90
29939;DHT22;16799;50.844;5.304;2022-07-26T06:15:41;18.30;99.90
29939;DHT22;16799;50.844;5.304;2022-07-26T06:18:08;18.30;99.90
29939;DHT22;16799;50.844;5.304;2022-07-26T06:20:44;18.30;99.90
29939;DHT22;16799;50.844;5.304;2022-07-26T06:23:10;18.40;99.90
29939;DHT22;16799;50.844;5.304;2022-07-26T06:25:36;18.50;99.90
29939;DHT22;16799;50.844;5.304;2022-07-26T06:28:07;18.40;99.90
29939;DHT22;16799;50.844;5.304;2022-07-26T06:30:37;18.60;99.90
29939;DHT22;16799;50.844;5.304;2022-07-26T06:33:03;18.60;99.90
29939;DHT22;16799;50.844;5.304;2022-07-26T06:35:29;18.70;99.90
29939;DHT22;16799;50.844;5.304;2022-07-26T06:38:00;18.70;99.90
29939;DHT22;16799;50.844;5.304;2022-07-26T06:40:26;18.80;99.90
29939;DHT22;16799;50.844;5.304;2022-07-26T06:42:52;19.00;99.90
29939;DHT22;16799;50.844;5.304;2022-07-26T06:45:18;19.10;99.90
29939;DHT22;16799;50.844;5.304;2022-07-26T06:47:43;19.10;99.90
29939;DHT22;16799;50.844;5.304;2022-07-26T06:50:09;19.00;99.90
29939;DHT22;16799;50.844;5.304;2022-07-26T06:52:35;19.00;99.90
29939;DHT22;16799;50.844;5.304;2022-07-26T06:55:01;19.00;99.90
29939;DHT22;16799;50.844;5.304;2022-07-26T06:57:28;19.00;99.90
29939;DHT22;16799;50.844;5.304;2022-07-26T06:59:54;19.00;99.90
29939;DHT22;16799;50.844;5.304;2022-07-26T07:02:20;19.10;99.90
29939;DHT22;16799;50.844;5.304;2022-07-26T07:04:45;19.30;99.90
29939;DHT22;16799;50.844;5.304;2022-07-26T07:07:11;19.40;99.90
29939;DHT22;16799;50.844;5.304;2022-07-26T07:09:37;19.60;99.90
29939;DHT22;16799;50.844;5.304;2022-07-26T07:12:04;19.50;99.90
29939;DHT22;16799;50.844;5.304;2022-07-26T07:14:30;19.60;99.90
29939;DHT22;16799;50.844;5.304;2022-07-26T07:16:56;19.80;99.90
29939;DHT22;16799;50.844;5.304;2022-07-26T07:19:22;19.80;99.90
29939;DHT22;16799;50.844;5.304;2022-07-26T07:21:48;19.70;99.90
29939;DHT22;16799;50.844;5.304;2022-07-26T07:24:14;19.80;99.90
29939;DHT22;16799;50.844;5.304;2022-07-26T07:26:41;19.80;99.90
29939;DHT22;16799;50.844;5.304;2022-07-26T07:29:07;20.10;99.90
29939;DHT22;16799;50.844;5.304;2022-07-26T07:31:37;20.10;99.90
29939;DHT22;16799;50.844;5.304;2022-07-26T07:34:03;20.10;99.90
29939;DHT22;16799;50.844;5.304;2022-07-26T07:36:28;20.30;99.90
29939;DHT22;16799;50.844;5.304;2022-07-26T07:38:54;20.60;99.90
29939;DHT22;16799;50.844;5.304;2022-07-26T07:41:20;20.90;99.90
29939;DHT22;16799;50.844;5.304;2022-07-26T07:43:45;21.20;99.90
29939;DHT22;16799;50.844;5.304;2022-07-26T07:46:12;21.40;99.90
29939;DHT22;16799;50.844;5.304;2022-07-26T07:48:38;21.80;99.90
29939;DHT22;16799;50.844;5.304;2022-07-26T07:51:08;21.80;99.90
29939;DHT22;16799;50.844;5.304;2022-07-26T07:53:34;21.20;99.90
29939;DHT22;16799;50.844;5.304;2022-07-26T07:56:00;21.30;99.90
29939;DHT22;16799;50.844;5.304;2022-07-26T07:58:26;21.10;99.90
29939;DHT22;16799;50.844;5.304;2022-07-26T08:00:52;21.00;99.90
29939;DHT22;16799;50.844;5.304;2022-07-26T08:03:18;21.10;99.90
29939;DHT22;16799;50.844;5.304;2022-07-26T08:05:45;21.40;99.90
29939;DHT22;16799;50.844;5.304;2022-07-26T08:08:10;21.60;99.90
29939;DHT22;16799;50.844;5.304;2022-07-26T08:10:36;21.70;99.90
29939;DHT22;16799;50.844;5.304;2022-07-26T08:13:01;21.80;99.90
29939;DHT22;16799;50.844;5.304;2022-07-26T08:15:27;21.90;99.90
29939;DHT22;16799;50.844;5.304;2022-07-26T08:17:53;22.20;99.90
29939;DHT22;16799;50.844;5.304;2022-07-26T08:20:19;22.30;99.90
29939;DHT22;16799;50.844;5.304;2022-07-26T08:22:45;22.60;99.90
29939;DHT22;16799;50.844;5.304;2022-07-26T08:25:11;22.50;99.90
29939;DHT22;16799;50.844;5.304;2022-07-26T08:27:36;22.40;99.90
29939;DHT22;16799;50.844;5.304;2022-07-26T08:30:04;22.60;99.90
29939;DHT22;16799;50.844;5.304;2022-07-26T08:32:30;22.40;99.90
29939;DHT22;16799;50.844;5.304;2022-07-26T08:34:55;22.20;99.90
29939;DHT22;16799;50.844;5.304;2022-07-26T08:37:21;21.70;99.90
29939;DHT22;16799;50.844;5.304;2022-07-26T08:39:47;21.40;99.90
29939;DHT22;16799;50.844;5.304;2022-07-26T08:42:18;21.50;99.90
29939;DHT22;16799;50.844;5.304;2022-07-26T08:44:45;21.60;99.90
29939;DHT22;16799;50.844;5.304;2022-07-26T08:47:16;21.30;99.90
29939;DHT22;16799;50.844;5.304;2022-07-26T08:49:42;21.30;99.90
29939;DHT22;16799;50.844;5.304;2022-07-26T08:52:09;21.00;99.90
29939;DHT22;16799;50.844;5.304;2022-07-26T08:54:35;20.80;99.90
29939;DHT22;16799;50.844;5.304;2022-07-26T08:57:01;20.60;99.90
29939;DHT22;16799;50.844;5.304;2022-07-26T08:59:27;20.30;99.90
29939;DHT22;16799;50.844;5.304;2022-07-26T09:02:04;20.20;99.90
29939;DHT22;16799;50.844;5.304;2022-07-26T09:04:33;19.90;99.90
29939;DHT22;16799;50.844;5.304;2022-07-26T09:07:06;19.60;99.90
29939;DHT22;16799;50.844;5.304;2022-07-26T09:09:33;19.70;99.90
29939;DHT22;16799;50.844;5.304;2022-07-26T09:12:16;19.80;99.90
29939;DHT22;16799;50.844;5.304;2022-07-26T09:14:42;19.70;99.90
29939;DHT22;16799;50.844;5.304;2022-07-26T09:17:11;19.80;99.90
29939;DHT22;16799;50.844;5.304;2022-07-26T09:19:37;19.70;99.90
29939;DHT22;16799;50.844;5.304;2022-07-26T09:22:11;19.60;99.90
29939;DHT22;16799;50.844;5.304;2022-07-26T09:24:45;19.60;99.90
29939;DHT22;16799;50.844;5.304;2022-07-26T09:27:13;19.60;99.90
29939;DHT22;16799;50.844;5.304;2022-07-26T09:29:47;19.80;99.90
29939;DHT22;16799;50.844;5.304;2022-07-26T09:32:17;20.10;99.90
29939;DHT22;16799;50.844;5.304;2022-07-26T09:34:48;20.30;99.90
29939;DHT22;16799;50.844;5.304;2022-07-26T09:37:14;20.60;99.90
29939;DHT22;16799;50.844;5.304;2022-07-26T09:39:55;20.90;99.90
29939;DHT22;16799;50.844;5.304;2022-07-26T09:42:23;21.00;99.90
29939;DHT22;16799;50.844;5.304;2022-07-26T09:44:49;21.00;99.90
29939;DHT22;16799;50.844;5.304;2022-07-26T09:47:15;21.00;99.90
29939;DHT22;16799;50.844;5.304;2022-07-26T09:49:41;21.00;99.90
29939;DHT22;16799;50.844;5.304;2022-07-26T09:52:17;21.20;99.90
29939;DHT22;16799;50.844;5.304;2022-07-26T09:54:44;21.30;99.90
29939;DHT22;16799;50.844;5.304;2022-07-26T09:57:17;21.70;99.90
29939;DHT22;16799;50.844;5.304;2022-07-26T09:59:43;21.80;99.90
29939;DHT22;16799;50.844;5.304;2022-07-26T10:02:09;22.00;99.90
29939;DHT22;16799;50.844;5.304;2022-07-26T10:04:35;22.60;99.90
29939;DHT22;16799;50.844;5.304;2022-07-26T10:07:02;22.50;99.90
29939;DHT22;16799;50.844;5.304;2022-07-26T10:09:38;22.20;99.90
29939;DHT22;16799;50.844;5.304;2022-07-26T10:12:06;22.50;99.90
29939;DHT22;16799;50.844;5.304;2022-07-26T10:14:38;22.30;99.20
29939;DHT22;16799;50.844;5.304;2022-07-26T10:17:43;22.50;99.90
29939;DHT22;16799;50.844;5.304;2022-07-26T10:20:38;23.10;97.80
29939;DHT22;16799;50.844;5.304;2022-07-26T10:25:56;23.20;98.10
29939;DHT22;16799;50.844;5.304;2022-07-26T10:28:24;23.10;96.90
29939;DHT22;16799;50.844;5.304;2022-07-26T10:30:52;23.00;95.80
29939;DHT22;16799;50.844;5.304;2022-07-26T10:33:19;23.00;96.80
29939;DHT22;16799;50.844;5.304;2022-07-26T10:35:47;23.20;96.60
29939;DHT22;16799;50.844;5.304;2022-07-26T10:38:17;24.10;95.50
29939;DHT22;16799;50.844;5.304;2022-07-26T10:41:01;24.40;93.00
29939;DHT22;16799;50.844;5.304;2022-07-26T10:43:27;24.20;92.70
29939;DHT22;16799;50.844;5.304;2022-07-26T10:49:04;24.40;90.80
29939;DHT22;16799;50.844;5.304;2022-07-26T10:51:35;25.30;90.70
29939;DHT22;16799;50.844;5.304;2022-07-26T10:54:03;24.40;90.30
29939;DHT22;16799;50.844;5.304;2022-07-26T10:56:29;24.30;90.80
29939;DHT22;16799;50.844;5.304;2022-07-26T10:58:55;24.80;90.00
29939;DHT22;16799;50.844;5.304;2022-07-26T11:01:21;25.00;89.00
29939;DHT22;16799;50.844;5.304;2022-07-26T11:03:47;25.20;88.80
29939;DHT22;16799;50.844;5.304;2022-07-26T11:06:15;24.80;89.90
29939;DHT22;16799;50.844;5.304;2022-07-26T11:08:44;24.50;90.10
29939;DHT22;16799;50.844;5.304;2022-07-26T11:11:10;24.70;87.00
29939;DHT22;16799;50.844;5.304;2022-07-26T11:13:36;24.40;86.60
29939;DHT22;16799;50.844;5.304;2022-07-26T11:16:08;24.30;89.40
29939;DHT22;16799;50.844;5.304;2022-07-26T11:18:36;24.60;87.60
29939;DHT22;16799;50.844;5.304;2022-07-26T11:21:12;25.50;85.20
29939;DHT22;16799;50.844;5.304;2022-07-26T11:23:41;25.40;83.30
29939;DHT22;16799;50.844;5.304;2022-07-26T11:26:19;24.70;84.70
29939;DHT22;16799;50.844;5.304;2022-07-26T11:29:24;25.00;83.30
29939;DHT22;16799;50.844;5.304;2022-07-26T11:31:43;25.90;81.40
29939;DHT22;16799;50.844;5.304;2022-07-26T11:34:17;26.20;78.40
29939;DHT22;16799;50.844;5.304;2022-07-26T11:36:43;26.80;78.00
29939;DHT22;16799;50.844;5.304;2022-07-26T11:39:14;26.60;76.60
29939;DHT22;16799;50.844;5.304;2022-07-26T11:41:41;25.70;79.90
29939;DHT22;16799;50.844;5.304;2022-07-26T11:44:15;25.90;80.90
29939;DHT22;16799;50.844;5.304;2022-07-26T11:46:41;26.40;76.10
29939;DHT22;16799;50.844;5.304;2022-07-26T11:51:39;26.10;77.20
29939;DHT22;16799;50.844;5.304;2022-07-26T11:54:05;25.80;78.80
29939;DHT22;16799;50.844;5.304;2022-07-26T11:56:31;25.20;80.90
29939;DHT22;16799;50.844;5.304;2022-07-26T11:58:58;24.70;82.10
29939;DHT22;16799;50.844;5.304;2022-07-26T12:01:25;25.20;81.70
29939;DHT22;16799;50.844;5.304;2022-07-26T12:03:52;25.60;79.00
29939;DHT22;16799;50.844;5.304;2022-07-26T12:06:24;24.90;81.70
29939;DHT22;16799;50.844;5.304;2022-07-26T12:08:57;25.10;82.60
29939;DHT22;16799;50.844;5.304;2022-07-26T12:11:25;25.60;80.90
29939;DHT22;16799;50.844;5.304;2022-07-26T12:14:01;26.10;79.10
29939;DHT22;16799;50.844;5.304;2022-07-26T12:16:44;25.60;79.80
29939;DHT22;16799;50.844;5.304;2022-07-26T12:21:46;24.60;81.50
29939;DHT22;16799;50.844;5.304;2022-07-26T12:27:18;23.70;85.20
29939;DHT22;16799;50.844;5.304;2022-07-26T12:29:46;23.50;86.10
29939;DHT22;16799;50.844;5.304;2022-07-26T12:32:17;23.80;88.50
29939;DHT22;16799;50.844;5.304;2022-07-26T12:37:30;23.60;92.10
29939;DHT22;16799;50.844;5.304;2022-07-26T12:40:07;24.10;93.40
29939;DHT22;16799;50.844;5.304;2022-07-26T12:42:35;24.70;91.20
29939;DHT22;16799;50.844;5.304;2022-07-26T12:45:02;25.20;91.00
29939;DHT22;16799;50.844;5.304;2022-07-26T12:47:28;26.00;89.60
29939;DHT22;16799;50.844;5.304;2022-07-26T12:49:54;26.50;84.20
29939;DHT22;16799;50.844;5.304;2022-07-26T12:52:21;26.90;83.30
29939;DHT22;16799;50.844;5.304;2022-07-26T12:54:49;27.00;83.90
29939;DHT22;16799;50.844;5.304;2022-07-26T12:57:17;26.70;82.60
29939;DHT22;16799;50.844;5.304;2022-07-26T12:59:44;26.00;83.80
29939;DHT22;16799;50.844;5.304;2022-07-26T13:02:10;26.10;84.70
29939;DHT22;16799;50.844;5.304;2022-07-26T13:04:36;26.40;84.10
29939;DHT22;16799;50.844;5.304;2022-07-26T13:07:02;26.80;77.80
29939;DHT22;16799;50.844;5.304;2022-07-26T13:09:28;27.00;78.40
29939;DHT22;16799;50.844;5.304;2022-07-26T13:11:54;27.00;77.70
29939;DHT22;16799;50.844;5.304;2022-07-26T13:14:20;26.90;77.60
29939;DHT22;16799;50.844;5.304;2022-07-26T13:16:46;26.70;77.10
29939;DHT22;16799;50.844;5.304;2022-07-26T13:19:12;27.10;77.70
29939;DHT22;16799;50.844;5.304;2022-07-26T13:21:37;27.60;76.10
29939;DHT22;16799;50.844;5.304;2022-07-26T13:24:03;27.90;75.30
29939;DHT22;16799;50.844;5.304;2022-07-26T13:26:29;26.90;77.20
29939;DHT22;16799;50.844;5.304;2022-07-26T13:28:54;25.60;81.80
29939;DHT22;16799;50.844;5.304;2022-07-26T13:31:20;26.60;79.80
29939;DHT22;16799;50.844;5.304;2022-07-26T13:33:45;27.10;77.00
29939;DHT22;16799;50.844;5.304;2022-07-26T13:36:11;26.80;76.10
29939;DHT22;16799;50.844;5.304;2022-07-26T13:38:37;26.10;78.50
29939;DHT22;16799;50.844;5.304;2022-07-26T13:41:03;25.60;78.00
29939;DHT22;16799;50.844;5.304;2022-07-26T13:43:29;25.60;78.90
29939;DHT22;16799;50.844;5.304;2022-07-26T13:45:57;26.50;77.90
29939;DHT22;16799;50.844;5.304;2022-07-26T13:48:23;27.30;73.60
29939;DHT22;16799;50.844;5.304;2022-07-26T13:50:49;26.70;74.90
29939;DHT22;16799;50.844;5.304;2022-07-26T13:53:15;25.60;74.60
29939;DHT22;16799;50.844;5.304;2022-07-26T13:55:41;25.10;77.00
29939;DHT22;16799;50.844;5.304;2022-07-26T13:58:07;24.90;78.10
29939;DHT22;16799;50.844;5.304;2022-07-26T14:00:33;24.40;78.20
29939;DHT22;16799;50.844;5.304;2022-07-26T14:02:58;24.50;78.30
29939;DHT22;16799;50.844;5.304;2022-07-26T14:05:25;24.40;78.80
29939;DHT22;16799;50.844;5.304;2022-07-26T14:07:51;24.40;78.80
29939;DHT22;16799;50.844;5.304;2022-07-26T14:10:17;24.00;79.40
29939;DHT22;16799;50.844;5.304;2022-07-26T14:12:43;24.40;78.60
29939;DHT22;16799;50.844;5.304;2022-07-26T14:15:09;24.20;77.30
29939;DHT22;16799;50.844;5.304;2022-07-26T14:17:35;24.30;80.60
29939;DHT22;16799;50.844;5.304;2022-07-26T14:20:02;24.90;78.60
29939;DHT22;16799;50.844;5.304;2022-07-26T14:22:29;25.60;77.70
29939;DHT22;16799;50.844;5.304;2022-07-26T14:24:54;26.40;76.00
29939;DHT22;16799;50.844;5.304;2022-07-26T14:27:20;27.10;72.20
29939;DHT22;16799;50.844;5.304;2022-07-26T14:29:46;26.90;72.60
29939;DHT22;16799;50.844;5.304;2022-07-26T14:32:12;27.50;72.40
29939;DHT22;16799;50.844;5.304;2022-07-26T14:34:38;28.00;69.90
29939;DHT22;16799;50.844;5.304;2022-07-26T14:37:04;28.20;70.30
29939;DHT22;16799;50.844;5.304;2022-07-26T14:39:30;28.30;69.60
29939;DHT22;16799;50.844;5.304;2022-07-26T14:41:55;28.80;68.00
29939;DHT22;16799;50.844;5.304;2022-07-26T14:44:21;28.40;70.50
29939;DHT22;16799;50.844;5.304;2022-07-26T14:46:47;28.40;68.80
29939;DHT22;16799;50.844;5.304;2022-07-26T14:49:13;28.50;66.90
29939;DHT22;16799;50.844;5.304;2022-07-26T14:51:38;28.80;68.50
29939;DHT22;16799;50.844;5.304;2022-07-26T14:54:04;28.30;67.80
29939;DHT22;16799;50.844;5.304;2022-07-26T14:56:30;27.40;71.80
29939;DHT22;16799;50.844;5.304;2022-07-26T14:58:56;28.90;72.40
29939;DHT22;16799;50.844;5.304;2022-07-26T15:01:21;29.90;67.10
29939;DHT22;16799;50.844;5.304;2022-07-26T15:03:47;29.90;68.80
29939;DHT22;16799;50.844;5.304;2022-07-26T15:06:15;31.10;67.70
29939;DHT22;16799;50.844;5.304;2022-07-26T15:08:40;32.20;65.00
29939;DHT22;16799;50.844;5.304;2022-07-26T15:11:06;32.20;62.20
29939;DHT22;16799;50.844;5.304;2022-07-26T15:13:33;30.60;65.10
29939;DHT22;16799;50.844;5.304;2022-07-26T15:15:58;28.70;68.70
29939;DHT22;16799;50.844;5.304;2022-07-26T15:18:24;29.50;70.00
29939;DHT22;16799;50.844;5.304;2022-07-26T15:20:50;30.10;66.80
29939;DHT22;16799;50.844;5.304;2022-07-26T15:23:16;30.90;67.10
29939;DHT22;16799;50.844;5.304;2022-07-26T15:25:41;31.80;63.60
29939;DHT22;16799;50.844;5.304;2022-07-26T15:28:07;31.60;62.70
29939;DHT22;16799;50.844;5.304;2022-07-26T15:30:34;30.80;64.50
29939;DHT22;16799;50.844;5.304;2022-07-26T15:33:00;30.30;66.20
29939;DHT22;16799;50.844;5.304;2022-07-26T15:35:27;30.40;65.90
29939;DHT22;16799;50.844;5.304;2022-07-26T15:37:53;30.30;67.30
29939;DHT22;16799;50.844;5.304;2022-07-26T15:40:20;30.30;67.80
29939;DHT22;16799;50.844;5.304;2022-07-26T15:42:46;31.00;66.10
29939;DHT22;16799;50.844;5.304;2022-07-26T15:45:14;30.60;66.00
29939;DHT22;16799;50.844;5.304;2022-07-26T15:47:41;30.20;67.20
29939;DHT22;16799;50.844;5.304;2022-07-26T15:50:08;29.90;67.10